Big Moose, New York
Current Conditions -  °F | °C
As of 8:58 AM on Wednesday 22 Oct 2014 (Local Time) from KGTB Reporting Station
Overcast Overcast  
Wind Chill: 37°   Ceiling: 1100
Heat Index: 43°   Visibility: 10mi
Dew Point: 39°   Wind: 10mph
Humidity: 86%   Direction: 50°NE
Pressure: 30.18"   Gusts: NA
Location:  43.8364°N, 74.9967°W
Report Text: KGTB 221258Z AUTO 05009KT 10SM OVC011 06/04 A3018 RMK AO2 SLP225 T00590038
Loading
Personal Weather Stations






























Interactive Weather Map
Tropical Storm Tracking
New forecast layout! Learn more

10-Day Weather Forecast

Advertisements
Track Severe Weather on mobile